Nearby METAR Reports

EGNX - East Midlands, United Kingdom
Distance: S 18mi, 28km
Updated: 13/12/2018 06:50
Few Clouds
Few Clouds
 Wind from E
Wind: E 13 mph , 20 km/h
Temperature: 2°C
Wind Chill: -3°C
Dew Point: 0°C
Humidity: 87%
Barometer: 1016 hPa
Clouds: Few Clouds
Visibility: 6 miles , 10 km
Cloud details: Few Clouds 1006 m
2018/12/13 06:50 EGNX 130650Z 10011KT 9999 FEW033 02/00 Q1016
EGCN - Doncaster Sheffi, United Kingdom
Distance: NNE 31mi, 50km
Updated: 13/12/2018 06:50
Mostly cloudy
Mostly cloudy
 Wind from ESE
Wind: ESE 9 mph , 15 km/h
Temperature: 5°C
Wind Chill: 2°C
Dew Point: 1°C
Humidity: 76%
Barometer: 1019 hPa
Clouds: Mostly cloudy
Visibility: 6 miles , 10 km
Cloud details: Mostly cloudy 1219 m
2018/12/13 06:50 EGCN 130650Z 12008KT 9999 BKN040 05/01 Q1019
EGYE - Barkston Heath R, United Kingdom
Distance: ESE 31mi, 50km
Updated: 12/12/2018 14:50
NOT Current
Few Clouds
Few Clouds
 Wind from SE
Wind: SE 15 mph , 24 km/h
Barometer: 1021 hPa
Clouds: Few Clouds
Visibility: 6 miles , 10 km
Cloud details: Few Clouds 610 m
2018/12/12 14:50 EGYE 121450Z 13013KT 9999 FEW020 ///// Q1021 BLU
 
EGXW - Waddington Raf, United Kingdom
Distance: ENE 33mi, 53km
Updated: 13/12/2018 06:50
Partly cloudy
Partly cloudy
 Wind from ESE
Wind: ESE 16 mph , 26 km/h
Temperature: 3°C
Wind Chill: -2°C
Dew Point: 0°C
Humidity: 81%
Barometer: 1017 hPa
Clouds: Partly cloudy
Visibility: 6 miles , 10 km
Cloud details: Partly cloudy 1036 m
2018/12/13 06:50 EGXW 130650Z 11014KT 9999 SCT034 03/00 Q1017 BLU NOSIG
EGYD - Cranwell Raf, United Kingdom
Distance: E 33mi, 53km
Updated: 13/12/2018 06:50
Mostly cloudy
Mostly cloudy
 Wind from ESE
Wind: ESE 15 mph , 24 km/h
Temperature: 2°C
Wind Chill: -3°C
Dew Point: 0°C
Humidity: 87%
Barometer: 1017 hPa
Clouds: Mostly cloudy
Visibility: 6 miles , 10 km
Cloud details: Few Clouds 1067 m
Mostly cloudy 7620 m
2018/12/13 06:50 EGYD 130650Z 11013KT 9999 FEW035 BKN250 02/M00 Q1017 BLU NOSIG
EGXP - Scampton Raf, United Kingdom
Distance: ENE 35mi, 56km
Updated: 13/12/2018 06:50
Mostly cloudy
Mostly cloudy
 Wind from ESE
Wind: ESE 12 mph , 19 km/h
Temperature: 3°C
Wind Chill: -2°C
Dew Point: 0°C
Humidity: 81%
Barometer: 1018 hPa
Clouds: Mostly cloudy
Visibility: 6 miles , 10 km
Cloud details: Mostly cloudy 1067 m
2018/12/13 06:50 EGXP 130650Z AUTO 12010KT 9999 // BKN035/// 03/M00 Q1018
 
EGCC - Manchester Intl, United Kingdom
Distance: WNW 45mi, 72km
Updated: 13/12/2018 06:50
Mostly cloudy
Mostly cloudy
 Wind from varies
Wind: varies 7 mph , 11 km/h
Temperature: 4°C
Wind Chill: 1°C
Dew Point: -2°C
Humidity: 65%
Barometer: 1016 hPa
Clouds: Mostly cloudy
Visibility: 6 miles , 10 km
Cloud details: Mostly cloudy 792 m
2018/12/13 06:50 EGCC 130650Z AUTO VRB06KT 9999 BKN026 04/M02 Q1016 NOSIG
EGBB - Birmingham Airpo, United Kingdom
Distance: SSW 46mi, 74km
Updated: 13/12/2018 06:50
Clear
Clear
 Wind from SE
Wind: SE 10 mph , 17 km/h
Temperature: 1°C
Wind Chill: -3°C
Dew Point: 0°C
Humidity: 93%
Barometer: 1016 hPa
Summary: Clear
Visibility: greater than 7 miles , 10 km
2018/12/13 06:50 EGBB 130650Z 13009KT CAVOK 01/M00 Q1016
EGXC - Coningsby Raf, United Kingdom
Distance: E 47mi, 75km
Updated: 13/12/2018 06:50
Mostly cloudy
Mostly cloudy
 Wind from ESE
Wind: ESE 12 mph , 19 km/h
Temperature: 4°C
Wind Chill: 0°C
Dew Point: 0°C
Humidity: 75%
Barometer: 1018 hPa
Clouds: Mostly cloudy
Visibility: 6 miles , 10 km
Cloud details: Mostly cloudy 1158 m
2018/12/13 06:50 EGXC 130650Z 11010KT 9999 BKN038 04/00 Q1018 BLU NOSIG
 
EGXT - Wittering Raf, United Kingdom
Distance: SE 47mi, 75km
Updated: 13/12/2018 06:50
Few Clouds
Few Clouds
 Wind from SE
Wind: SE 7 mph , 11 km/h
Temperature: 2°C
Wind Chill: -1°C
Dew Point: -1°C
Humidity: 81%
Barometer: 1017 hPa
Clouds: Few Clouds
Visibility: 6 miles , 10 km
Cloud details: Few Clouds 853 m
2018/12/13 06:50 EGXT 130650Z 13006KT 9999 FEW028 02/M01 Q1017 BLU
EGNJ - Humberside, United Kingdom
Distance: NE 52mi, 83km
Updated: 13/12/2018 06:50
Partly cloudy
Partly cloudy
 Wind from ESE
Wind: ESE 13 mph , 20 km/h
Temperature: 4°C
Wind Chill: -1°C
Dew Point: 1°C
Humidity: 81%
Barometer: 1019 hPa
Clouds: Partly cloudy
Visibility: 6 miles , 10 km
Cloud details: Partly cloudy 1067 m
2018/12/13 06:50 EGNJ 130650Z 11011KT 9999 SCT035 04/01 Q1019
EGWC - Cosford Raf, United Kingdom
Distance: SW 52mi, 83km
Updated: 12/12/2018 12:50
NOT Current
Partly cloudy
Partly cloudy
 Wind from SE
Wind: SE 16 mph , 26 km/h
Temperature: 7°C
Wind Chill: 3°C
Dew Point: 6°C
Humidity: 93%
Barometer: 1020 hPa
Clouds: Partly cloudy
Visibility: 6 miles , 10 km
Cloud details: Partly cloudy 549 m
2018/12/12 12:50 EGWC 121250Z 14014KT 9999 SCT018 07/06 Q1020 WHT
 
EGNM - Leeds And Bradfo, United Kingdom
Distance: NNW 57mi, 91km
Updated: 13/12/2018 06:50
Mostly cloudy
Mostly cloudy
 Wind from ESE
Wind: ESE 21 mph , 33 km/h
Temperature: 3°C
Wind Chill: -3°C
Dew Point: -1°C
Humidity: 75%
Barometer: 1017 hPa
Clouds: Mostly cloudy
Visibility: 6 miles , 10 km
Cloud details: Mostly cloudy 732 m
2018/12/13 06:50 EGNM 130650Z 12018KT 9999 BKN024 03/M01 Q1017
EGOS - Shawbury Raf, United Kingdom
Distance: WSW 60mi, 97km
Updated: 13/12/2018 06:50
Clear
Clear
 Wind from ESE
Wind: ESE 14 mph , 22 km/h
Temperature: 2°C
Wind Chill: -3°C
Dew Point: 0°C
Humidity: 87%
Barometer: 1015 hPa
Summary: Clear
Visibility: greater than 7 miles , 10 km
2018/12/13 06:50 EGOS 130650Z 11012KT CAVOK 02/M00 Q1015 BLU
EGYH - Holbeach (aut), United Kingdom
Distance: ESE 62mi, 99km
Updated: 12/12/2018 15:50
NOT Current
Clear
Clear
 Wind from SSE
Wind: SSE 14 mph , 22 km/h
Temperature: 4°C
Wind Chill: -1°C
Dew Point: 0°C
Humidity: 75%
Barometer: 1022 hPa
Summary: Clear
Visibility: greater than 7 miles , 10 km
2018/12/12 15:50 EGYH 121550Z 15012KT CAVOK 04/M00 Q1022 BLU
 
EGXV - Leconfield (aut), United Kingdom
Distance: NNE 65mi, 105km
Updated: 13/12/2018 06:50
Mostly cloudy
Mostly cloudy
 Wind from SE
Wind: SE 10 mph , 17 km/h
Temperature: 5°C
Wind Chill: 2°C
Dew Point: 0°C
Humidity: 70%
Barometer: 1019 hPa
Clouds: Mostly cloudy
Visibility: 6 miles , 10 km
Cloud details: Mostly cloudy 1036 m
2018/12/13 06:50 EGXV 130650Z AUTO 14009KT 9999 BKN034/// 05/00 Q1019
EGXS - Donna Nook Raf, United Kingdom
Distance: ENE 66mi, 106km
Updated: 13/12/2018 06:50
Overcast
Overcast
 Wind from SE
Wind: SE 21 mph , 33 km/h, Gust: 32 mph , 52 km/h
Temperature: 6°C
Wind Chill: 1°C
Dew Point: 1°C
Humidity: 71%
Barometer: 1019 hPa
Clouds: Overcast
Visibility: 6 miles , 10 km
Cloud details: Few Clouds 945 m
Overcast 1097 m
2018/12/13 06:50 EGXS 130650Z AUTO 13018G28KT 9999 // FEW031/// OVC036/// 06/01 Q1019
EGGP - Liverpool Airpor, United Kingdom
Distance: WNW 67mi, 107km
Updated: 13/12/2018 06:50
Few Clouds
Few Clouds
 Wind from ESE
Wind: ESE 18 mph , 30 km/h
Temperature: 3°C
Wind Chill: -3°C
Dew Point: -1°C
Humidity: 75%
Barometer: 1015 hPa
Clouds: Few Clouds
Visibility: 6 miles , 10 km
Cloud details: Few Clouds 1036 m
2018/12/13 06:50 EGGP 130650Z 12016KT 9999 FEW034 03/M01 Q1015
 
EGXU - Linton-On-Ouse R, United Kingdom
Distance: N 68mi, 109km
Updated: 13/12/2018 06:51
Mostly cloudy
Mostly cloudy
 Wind from SE
Wind: SE 15 mph , 24 km/h
Temperature: 5°C
Wind Chill: 1°C
Dew Point: -1°C
Humidity: 66%
Barometer: 1018 hPa
Clouds: Mostly cloudy
Visibility: 6 miles , 10 km
Cloud details: Mostly cloudy 1067 m
2018/12/13 06:51 EGXU 130651Z 14013KT 9999 BKN035 05/M01 Q1018 BLU NOSIG
EGNR - Hawarden (aut), United Kingdom
Distance: W 70mi, 112km
Updated: 13/12/2018 06:50
Few Clouds
Few Clouds
 Wind from SE
Wind: SE 12 mph , 19 km/h
Temperature: 2°C
Wind Chill: -2°C
Dew Point: -1°C
Humidity: 81%
Barometer: 1015 hPa
Clouds: Few Clouds
Visibility: 6 miles , 10 km
Cloud details: Few Clouds 579 m
2018/12/13 06:50 EGNR 130650Z 14010KT 9999 FEW019 02/M01 Q1015